Weather at Čáslav Air Base

Public forecast

Using degrees Celsius for public forecast. Weather courtesy of forecast.io.

Current aviation weather report (METAR) for Čáslav Air Base

Retrieved 2021/01/19 11:30 UTC (0 seconds ago):

LKCV 191130Z 24008KT CAVOK 03/M03 Q1014 NOSIG

Aviation forecast (TAF) for Čáslav Air Base

Retrieved 2021/01/19 06:00 UTC (5 hours ago):

TAF LKCV 190500Z 1906/2006 25009KT 9999 BKN030 TEMPO 1906/1911 25009G24KT TEMPO 1906/1915 CAVOK TEMPO 1911/1915 21008KT PROB40 TEMPO 1915/1923 2000 SNRA BR BKN004 BECMG 2004/2006 21005KT CAVOK